createdAt,value
2018-11-07T00:02:10.679Z,35.00
2018-11-07T00:04:39.149Z,34.37
2018-11-07T00:07:07.652Z,38.73
2018-11-07T00:09:36.116Z,38.77
2018-11-07T00:12:04.883Z,39.13
2018-11-07T00:14:33.475Z,36.87
2018-11-07T00:17:02.011Z,38.53
2018-11-07T00:19:30.508Z,37.67
2018-11-07T00:21:58.987Z,43.70
2018-11-07T00:24:27.438Z,36.37
2018-11-07T00:26:56.925Z,39.60
2018-11-07T00:29:25.379Z,41.20
2018-11-07T00:31:53.856Z,43.10
2018-11-07T00:34:22.308Z,45.70
2018-11-07T00:36:50.855Z,53.40
2018-11-07T00:39:19.308Z,43.10
2018-11-07T00:41:47.784Z,43.30
2018-11-07T00:44:16.236Z,40.13
2018-11-07T00:46:44.725Z,38.77
2018-11-07T00:49:13.180Z,42.90
2018-11-07T00:51:41.725Z,46.37
2018-11-07T00:54:10.184Z,48.40
2018-11-07T00:56:38.668Z,45.13
2018-11-07T00:59:07.149Z,42.57
2018-11-07T01:01:35.631Z,42.53
2018-11-07T01:04:04.101Z,41.97
2018-11-07T01:06:32.616Z,46.27
2018-11-07T01:09:01.073Z,39.50
2018-11-07T01:11:29.549Z,42.10
2018-11-07T01:13:58.021Z,44.03
2018-11-07T01:16:26.526Z,36.23
2018-11-07T01:18:54.970Z,40.47
2018-11-07T01:21:23.455Z,41.43
2018-11-07T01:23:51.910Z,42.27
2018-11-07T01:26:20.396Z,42.30
2018-11-07T01:28:48.844Z,39.87
2018-11-07T01:31:17.328Z,45.60
2018-11-07T01:33:45.785Z,47.30
2018-11-07T01:36:14.331Z,39.73
2018-11-07T01:38:42.776Z,41.47
2018-11-07T01:41:11.264Z,45.77
2018-11-07T01:43:39.820Z,39.90
2018-11-07T01:46:08.312Z,38.10
2018-11-07T01:48:36.808Z,34.53
2018-11-07T01:51:06.100Z,34.40
2018-11-07T01:53:35.288Z,36.33
2018-11-07T01:56:03.774Z,29.60
2018-11-07T01:58:32.227Z,40.93
2018-11-07T02:01:00.706Z,41.80
2018-11-07T02:03:29.172Z,42.33
2018-11-07T02:05:57.656Z,43.60
2018-11-07T02:08:30.372Z,46.20
2018-11-07T02:10:59.588Z,45.97
2018-11-07T02:13:28.069Z,40.13
2018-11-07T02:15:56.580Z,41.00
2018-11-07T02:18:25.033Z,39.80
2018-11-07T02:20:53.525Z,44.03
2018-11-07T02:23:21.976Z,36.63
2018-11-07T02:25:50.448Z,41.40
2018-11-07T02:28:19.132Z,40.40
2018-11-07T02:30:47.617Z,40.83
2018-11-07T02:33:16.108Z,39.67
2018-11-07T02:35:44.616Z,37.93
2018-11-07T02:38:13.077Z,36.40
2018-11-07T02:40:41.552Z,36.10
2018-11-07T02:43:10.013Z,34.40
2018-11-07T02:45:38.493Z,36.00
2018-11-07T02:48:07.020Z,34.20
2018-11-07T02:50:35.486Z,31.80
2018-11-07T02:53:03.961Z,34.27
2018-11-07T02:55:32.440Z,36.57
2018-11-07T02:58:00.876Z,35.40
2018-11-07T03:00:29.353Z,32.20
2018-11-07T03:02:57.799Z,34.90
2018-11-07T03:05:26.284Z,33.30
2018-11-07T03:07:54.736Z,36.60
2018-11-07T03:10:23.243Z,39.00
2018-11-07T03:12:51.667Z,36.80
2018-11-07T03:15:20.140Z,35.83
2018-11-07T03:17:48.640Z,32.03
2018-11-07T03:20:17.099Z,38.20
2018-11-07T03:22:45.603Z,33.00
2018-11-07T03:25:14.069Z,31.67
2018-11-07T03:27:42.556Z,29.10
2018-11-07T03:30:11.191Z,32.63
2018-11-07T03:32:39.697Z,31.77
2018-11-07T03:35:12.433Z,32.37
2018-11-07T03:37:40.928Z,32.07
2018-11-07T03:40:09.434Z,35.10
2018-11-07T03:42:37.938Z,33.50
2018-11-07T03:45:06.450Z,36.00
2018-11-07T03:47:34.944Z,36.67
2018-11-07T03:50:03.433Z,31.60
2018-11-07T03:52:31.921Z,32.97
2018-11-07T03:55:00.385Z,32.10
2018-11-07T03:57:29.217Z,35.43
2018-11-07T03:59:57.680Z,35.97
2018-11-07T04:02:26.172Z,33.67
2018-11-07T04:04:54.638Z,35.40
2018-11-07T04:07:23.128Z,30.47
2018-11-07T04:09:51.592Z,33.10
2018-11-07T04:12:20.089Z,32.67
2018-11-07T04:14:48.551Z,32.13
2018-11-07T04:17:17.058Z,35.43
2018-11-07T04:19:45.528Z,34.53
2018-11-07T04:22:14.019Z,37.00
2018-11-07T04:24:42.489Z,47.53
2018-11-07T04:27:10.996Z,34.20
2018-11-07T04:29:39.465Z,35.10
2018-11-07T04:32:07.952Z,37.97
2018-11-07T04:34:36.417Z,37.77
2018-11-07T04:37:04.986Z,35.27
2018-11-07T04:39:33.437Z,42.90
2018-11-07T04:42:01.933Z,31.43
2018-11-07T04:44:30.392Z,35.27
2018-11-07T04:46:58.897Z,36.73
2018-11-07T04:49:27.364Z,36.33
2018-11-07T04:51:55.874Z,33.80
2018-11-07T04:54:24.342Z,30.53
2018-11-07T04:56:52.844Z,33.20
2018-11-07T04:59:21.301Z,30.70
2018-11-07T05:01:49.806Z,30.53
2018-11-07T05:04:18.277Z,31.07
2018-11-07T05:06:46.773Z,37.07
2018-11-07T05:09:15.245Z,30.97
2018-11-07T05:11:43.729Z,29.50
2018-11-07T05:14:12.193Z,33.60
2018-11-07T05:16:40.934Z,33.23
2018-11-07T05:19:09.397Z,35.13
2018-11-07T05:21:37.897Z,35.60
2018-11-07T05:24:06.497Z,31.60
2018-11-07T05:26:35.097Z,31.10
2018-11-07T05:29:03.592Z,35.07
2018-11-07T05:31:32.110Z,39.00
2018-11-07T05:34:00.620Z,30.70
2018-11-07T05:36:29.137Z,31.50
2018-11-07T05:38:57.637Z,36.10
2018-11-07T05:41:26.159Z,36.23
2018-11-07T05:43:55.066Z,37.00
2018-11-07T05:46:23.570Z,32.40
2018-11-07T05:48:52.976Z,33.00
2018-11-07T05:51:21.445Z,31.70
2018-11-07T05:53:49.920Z,33.50
2018-11-07T05:56:18.431Z,31.17
2018-11-07T05:58:46.909Z,34.33
2018-11-07T06:01:15.633Z,29.63
2018-11-07T06:03:44.169Z,31.60
2018-11-07T06:06:12.718Z,32.33
2018-11-07T06:08:41.291Z,32.63
2018-11-07T06:11:09.764Z,31.60
2018-11-07T06:13:38.458Z,35.07
2018-11-07T06:16:07.367Z,37.67
2018-11-07T06:18:35.845Z,34.73
2018-11-07T06:21:04.417Z,33.30
2018-11-07T06:23:32.985Z,35.87
2018-11-07T06:26:01.488Z,32.80
2018-11-07T06:28:29.989Z,41.63
2018-11-07T06:30:58.829Z,35.50
2018-11-07T06:33:27.345Z,34.13
2018-11-07T06:35:55.862Z,33.73
2018-11-07T06:38:24.354Z,35.20
2018-11-07T06:40:52.965Z,32.30
2018-11-07T06:43:21.773Z,35.23
2018-11-07T06:45:50.245Z,35.43
2018-11-07T06:48:18.753Z,34.80
2018-11-07T06:50:47.233Z,33.07
2018-11-07T06:53:15.724Z,34.77
2018-11-07T06:55:44.254Z,30.23
2018-11-07T06:58:12.710Z,36.00
2018-11-07T07:00:41.189Z,34.10
2018-11-07T07:03:09.694Z,29.80
2018-11-07T07:05:38.153Z,31.27
2018-11-07T07:08:06.661Z,29.67
2018-11-07T07:10:35.125Z,28.60
2018-11-07T07:13:03.637Z,32.30
2018-11-07T07:15:32.106Z,32.20
2018-11-07T07:18:00.625Z,33.23
2018-11-07T07:20:29.101Z,29.50
2018-11-07T07:22:57.592Z,32.30
2018-11-07T07:25:26.129Z,31.23
2018-11-07T07:27:54.572Z,32.77
2018-11-07T07:30:23.038Z,37.47
2018-11-07T07:32:52.036Z,31.23
2018-11-07T07:35:20.561Z,35.50
2018-11-07T07:37:49.068Z,31.87
2018-11-07T07:40:17.733Z,34.23
2018-11-07T07:42:46.833Z,33.93
2018-11-07T07:45:19.638Z,31.07
2018-11-07T07:47:48.193Z,31.97
2018-11-07T07:50:18.144Z,32.60
2018-11-07T07:52:46.726Z,27.30
2018-11-07T07:55:15.260Z,31.20
2018-11-07T07:57:44.073Z,31.13
2018-11-07T08:00:14.525Z,30.70
2018-11-07T08:02:45.963Z,27.40
2018-11-07T08:05:14.476Z,26.67
2018-11-07T08:07:43.317Z,31.87
2018-11-07T08:10:16.225Z,33.10
2018-11-07T08:12:45.297Z,32.33
2018-11-07T08:15:14.318Z,33.93
2018-11-07T08:17:43.856Z,34.50
2018-11-07T08:20:13.618Z,34.50
2018-11-07T08:22:43.109Z,28.83
2018-11-07T08:25:11.646Z,31.83
2018-11-07T08:27:40.509Z,29.83
2018-11-07T08:30:13.442Z,27.27
2018-11-07T08:32:42.437Z,25.00
2018-11-07T08:35:12.625Z,24.30
2018-11-07T08:37:42.228Z,28.00
2018-11-07T08:40:13.328Z,23.33
2018-11-07T08:42:42.037Z,21.57
2018-11-07T08:45:11.641Z,21.20
2018-11-07T08:47:40.554Z,18.70
2018-11-07T08:50:12.957Z,21.97
2018-11-07T08:52:42.697Z,22.60
2018-11-07T08:55:13.082Z,21.37
2018-11-07T08:57:41.601Z,23.10
2018-11-07T09:00:13.610Z,16.57
2018-11-07T09:02:43.249Z,21.40
2018-11-07T09:05:12.489Z,23.47
2018-11-07T09:07:41.405Z,26.43
2018-11-07T09:10:11.653Z,24.50
2018-11-07T09:12:40.517Z,22.80
2018-11-07T09:15:12.804Z,24.10
2018-11-07T09:17:41.365Z,22.00
2018-11-07T09:20:12.384Z,20.90
2018-11-07T09:22:41.109Z,23.30
2018-11-07T09:25:09.661Z,23.10
2018-11-07T09:27:38.196Z,20.00
2018-11-07T09:30:09.593Z,19.53
2018-11-07T09:32:38.117Z,18.63
2018-11-07T09:35:07.983Z,17.73
2018-11-07T09:37:36.460Z,22.70
2018-11-07T09:40:06.958Z,21.53
2018-11-07T09:42:35.581Z,19.63
2018-11-07T09:45:04.156Z,20.30
2018-11-07T09:47:32.800Z,19.83
2018-11-07T09:50:01.161Z,19.17
2018-11-07T09:52:29.629Z,21.87
2018-11-07T09:54:58.132Z,23.57
2018-11-07T09:57:26.617Z,21.40
2018-11-07T09:59:55.115Z,27.03
2018-11-07T10:02:23.582Z,26.50
2018-11-07T10:04:52.074Z,22.33
2018-11-07T10:07:20.576Z,24.23
2018-11-07T10:09:49.101Z,24.63
2018-11-07T10:12:17.611Z,23.40
2018-11-07T10:14:46.100Z,23.77
2018-11-07T10:17:14.729Z,24.63
2018-11-07T10:19:43.546Z,23.70
2018-11-07T10:22:12.033Z,19.47
2018-11-07T10:24:40.544Z,17.33
2018-11-07T10:27:09.201Z,18.53
2018-11-07T10:29:37.782Z,22.57
2018-11-07T10:32:06.719Z,22.87
2018-11-07T10:34:35.326Z,20.70
2018-11-07T10:37:03.861Z,20.30
2018-11-07T10:39:32.442Z,24.53
2018-11-07T10:42:00.950Z,21.30
2018-11-07T10:44:29.552Z,33.93
2018-11-07T10:46:58.298Z,29.57
2018-11-07T10:49:26.829Z,23.17
2018-11-07T10:51:55.388Z,20.07
2018-11-07T10:54:23.930Z,13.87
2018-11-07T10:56:52.444Z,14.57
2018-11-07T10:59:20.998Z,13.73
2018-11-07T11:01:54.782Z,13.20
2018-11-07T11:04:23.291Z,13.17
2018-11-07T11:06:51.995Z,13.70
2018-11-07T11:09:20.542Z,12.83
2018-11-07T11:11:49.178Z,13.40
2018-11-07T11:14:17.735Z,15.47
2018-11-07T11:16:46.477Z,13.73
2018-11-07T11:19:14.977Z,14.73
2018-11-07T11:21:43.887Z,15.07
2018-11-07T11:24:12.410Z,15.60
2018-11-07T11:26:40.966Z,14.80
2018-11-07T11:29:09.494Z,16.63
2018-11-07T11:31:38.076Z,17.93
2018-11-07T11:34:06.732Z,15.40
2018-11-07T11:36:35.210Z,17.83
2018-11-07T11:39:04.257Z,17.50
2018-11-07T11:41:32.777Z,15.13
2018-11-07T11:44:01.257Z,16.73
2018-11-07T11:46:29.830Z,15.80
2018-11-07T11:48:58.345Z,15.87
2018-11-07T11:51:26.860Z,15.70
2018-11-07T11:53:55.386Z,17.70
2018-11-07T11:56:23.883Z,15.33
2018-11-07T11:58:52.436Z,19.00
2018-11-07T12:01:20.974Z,16.27
2018-11-07T12:03:49.509Z,17.10
2018-11-07T12:06:18.093Z,16.23
2018-11-07T12:08:46.688Z,16.43
2018-11-07T12:11:15.189Z,17.27
2018-11-07T12:13:43.854Z,16.60
2018-11-07T12:16:12.363Z,16.33
2018-11-07T12:18:40.874Z,17.17
2018-11-07T12:21:09.435Z,16.20
2018-11-07T12:23:37.965Z,14.50
2018-11-07T12:26:06.614Z,15.03
2018-11-07T12:28:35.151Z,26.97
2018-11-07T12:31:03.762Z,21.37
2018-11-07T12:33:32.315Z,16.30
2018-11-07T12:36:00.981Z,19.40
2018-11-07T12:38:29.602Z,17.50
2018-11-07T12:40:58.125Z,17.10
2018-11-07T12:43:26.639Z,17.10
2018-11-07T12:45:55.305Z,18.20
2018-11-07T12:48:23.826Z,18.93
2018-11-07T12:50:52.370Z,15.27
2018-11-07T12:53:21.187Z,16.60
2018-11-07T12:55:49.705Z,16.97
2018-11-07T12:58:18.417Z,17.17
2018-11-07T13:00:46.731Z,17.30
2018-11-07T13:03:15.239Z,18.67
2018-11-07T13:05:43.739Z,20.13
2018-11-07T13:08:12.254Z,18.30
2018-11-07T13:10:40.808Z,19.30
2018-11-07T13:13:09.338Z,21.47
2018-11-07T13:15:37.841Z,21.27
2018-11-07T13:18:07.060Z,19.57
2018-11-07T13:20:35.593Z,19.40
2018-11-07T13:23:04.140Z,20.60
2018-11-07T13:25:32.646Z,21.20
2018-11-07T13:28:01.202Z,18.87
2018-11-07T13:30:29.741Z,21.73
2018-11-07T13:32:58.277Z,17.73
2018-11-07T13:35:26.890Z,20.80
2018-11-07T13:37:55.581Z,17.97
2018-11-07T13:40:25.099Z,21.30
2018-11-07T13:42:53.906Z,19.07
2018-11-07T13:45:23.487Z,19.03
2018-11-07T13:47:53.054Z,21.43
2018-11-07T13:50:21.987Z,21.67
2018-11-07T13:52:50.560Z,17.00
2018-11-07T13:55:19.154Z,23.33
2018-11-07T13:57:47.658Z,21.80
2018-11-07T14:00:18.675Z,18.70
2018-11-07T14:02:48.088Z,17.93
2018-11-07T14:05:16.765Z,18.73
2018-11-07T14:07:45.185Z,22.20
2018-11-07T14:10:18.315Z,24.83
2018-11-07T14:12:46.830Z,18.27
2018-11-07T14:15:15.343Z,18.50
2018-11-07T14:17:44.153Z,19.63
2018-11-07T14:20:12.653Z,19.93
2018-11-07T14:22:41.418Z,19.63
2018-11-07T14:25:11.665Z,20.10
2018-11-07T14:27:40.567Z,20.50
2018-11-07T14:30:14.171Z,18.50
2018-11-07T14:32:45.085Z,19.00
2018-11-07T14:35:13.997Z,20.83
2018-11-07T14:37:42.489Z,24.40
2018-11-07T14:40:11.236Z,21.30
2018-11-07T14:42:39.769Z,22.10
2018-11-07T14:45:09.632Z,19.53
2018-11-07T14:47:38.316Z,23.73
2018-11-07T14:50:08.009Z,20.47
2018-11-07T14:52:36.744Z,19.77
2018-11-07T14:55:05.301Z,21.70
2018-11-07T14:57:34.412Z,26.67
2018-11-07T15:00:03.081Z,21.63
2018-11-07T15:02:31.642Z,23.27
2018-11-07T15:05:00.090Z,19.73
2018-11-07T15:07:28.593Z,20.40
2018-11-07T15:09:57.097Z,23.30
2018-11-07T15:12:25.565Z,28.53
2018-11-07T15:14:54.038Z,27.43
2018-11-07T15:17:22.625Z,21.07
2018-11-07T15:19:51.026Z,22.17
2018-11-07T15:22:19.533Z,22.43
2018-11-07T15:24:48.026Z,23.60
2018-11-07T15:27:16.538Z,27.40
2018-11-07T15:29:45.017Z,23.80
2018-11-07T15:32:13.553Z,25.37
2018-11-07T15:34:42.016Z,26.53
2018-11-07T15:37:10.553Z,26.63
2018-11-07T15:39:39.021Z,22.90
2018-11-07T15:42:07.521Z,22.33
2018-11-07T15:44:35.993Z,28.57
2018-11-07T15:47:04.545Z,24.80
2018-11-07T15:49:33.013Z,26.60
2018-11-07T15:52:01.607Z,26.10
2018-11-07T15:54:29.989Z,24.23
2018-11-07T15:56:58.485Z,23.30
2018-11-07T15:59:26.950Z,28.00
2018-11-07T16:01:55.442Z,26.60
2018-11-07T16:04:23.896Z,26.03
2018-11-07T16:06:52.385Z,33.67
2018-11-07T16:09:20.869Z,27.93
2018-11-07T16:11:49.361Z,27.67
2018-11-07T16:14:17.904Z,25.73
2018-11-07T16:16:46.360Z,32.90
2018-11-07T16:19:14.824Z,24.10
2018-11-07T16:21:43.297Z,26.60
2018-11-07T16:24:11.889Z,28.60
2018-11-07T16:26:40.276Z,33.57
2018-11-07T16:29:08.786Z,37.03
2018-11-07T16:31:37.296Z,27.83
2018-11-07T16:34:05.882Z,29.60
2018-11-07T16:36:34.424Z,28.27
2018-11-07T16:39:03.069Z,28.30
2018-11-07T16:41:31.660Z,27.80
2018-11-07T16:44:00.056Z,24.77
2018-11-07T16:46:28.562Z,31.87
2018-11-07T16:48:57.047Z,29.70
2018-11-07T16:51:25.519Z,28.93
2018-11-07T16:53:54.029Z,31.80
2018-11-07T16:56:22.496Z,33.70
2018-11-07T16:58:50.989Z,28.37
2018-11-07T17:01:19.472Z,29.23
2018-11-07T17:03:47.984Z,29.67
2018-11-07T17:06:16.469Z,30.30
2018-11-07T17:08:44.973Z,29.63
2018-11-07T17:11:13.445Z,30.90
2018-11-07T17:13:41.933Z,33.20
2018-11-07T17:16:10.405Z,29.50
2018-11-07T17:18:38.909Z,31.90
2018-11-07T17:21:07.369Z,33.53
2018-11-07T17:23:35.875Z,29.73
2018-11-07T17:26:04.346Z,28.73
2018-11-07T17:28:32.832Z,32.03
2018-11-07T17:31:01.300Z,36.27
2018-11-07T17:33:29.848Z,33.83
2018-11-07T17:35:58.358Z,31.60
2018-11-07T17:38:26.897Z,35.70
2018-11-07T17:40:55.495Z,36.60
2018-11-07T17:43:23.984Z,32.47
2018-11-07T17:45:52.453Z,31.90
2018-11-07T17:48:21.135Z,31.10
2018-11-07T17:50:49.432Z,36.43
2018-11-07T17:53:17.932Z,43.37
2018-11-07T17:55:46.417Z,25.97
2018-11-07T17:58:14.916Z,29.93
2018-11-07T18:00:43.425Z,31.93
2018-11-07T18:03:11.928Z,26.60
2018-11-07T18:05:40.397Z,25.70
2018-11-07T18:08:08.896Z,30.43
2018-11-07T18:10:37.369Z,26.57
2018-11-07T18:13:06.245Z,33.00
2018-11-07T18:15:34.717Z,33.20
2018-11-07T18:18:03.221Z,30.27
2018-11-07T18:20:31.686Z,29.87
2018-11-07T18:23:00.196Z,32.73
2018-11-07T18:25:28.656Z,30.73
2018-11-07T18:27:57.117Z,32.00
2018-11-07T18:30:25.613Z,34.33
2018-11-07T18:32:54.105Z,33.67
2018-11-07T18:35:22.731Z,33.93
2018-11-07T18:37:51.121Z,40.37
2018-11-07T18:40:20.713Z,33.00
2018-11-07T18:42:49.256Z,37.30
2018-11-07T18:45:17.724Z,40.50
2018-11-07T18:47:46.959Z,33.77
2018-11-07T18:50:17.204Z,38.43
2018-11-07T18:52:45.949Z,35.80
2018-11-07T18:55:15.593Z,38.50
2018-11-07T18:57:44.656Z,34.83
2018-11-07T19:00:16.745Z,38.20
2018-11-07T19:02:45.915Z,35.33
2018-11-07T19:05:14.437Z,42.23
2018-11-07T19:07:43.301Z,36.07
2018-11-07T19:10:14.573Z,36.03
2018-11-07T19:12:43.443Z,36.27
2018-11-07T19:15:13.181Z,39.80
2018-11-07T19:17:42.760Z,41.70
2018-11-07T19:20:12.452Z,35.03
2018-11-07T19:22:41.061Z,39.50
2018-11-07T19:25:12.222Z,42.33
2018-11-07T19:27:40.749Z,35.07
2018-11-07T19:30:13.225Z,39.00
2018-11-07T19:32:42.343Z,41.20
2018-11-07T19:35:12.089Z,35.57
2018-11-07T19:37:40.569Z,39.83
2018-11-07T19:40:11.241Z,42.77
2018-11-07T19:42:39.947Z,38.40
2018-11-07T19:45:10.819Z,37.27
2018-11-07T19:47:39.698Z,39.07
2018-11-07T19:50:09.937Z,45.13
2018-11-07T19:52:38.413Z,37.80
2018-11-07T19:55:09.470Z,38.17
2018-11-07T19:57:38.013Z,38.90
2018-11-07T20:00:08.878Z,42.70
2018-11-07T20:02:37.344Z,43.13
2018-11-07T20:05:06.245Z,38.47
2018-11-07T20:07:34.909Z,42.80
2018-11-07T20:10:03.488Z,42.97
2018-11-07T20:12:31.973Z,38.73
2018-11-07T20:15:00.477Z,41.20
2018-11-07T20:17:28.948Z,48.57
2018-11-07T20:19:57.438Z,43.80
2018-11-07T20:22:25.922Z,38.30
2018-11-07T20:24:54.421Z,39.83
2018-11-07T20:27:22.900Z,38.50
2018-11-07T20:29:51.417Z,36.87
2018-11-07T20:32:19.924Z,39.60
2018-11-07T20:34:48.453Z,39.93
2018-11-07T20:37:16.956Z,35.47
2018-11-07T20:39:45.413Z,39.53
2018-11-07T20:42:13.918Z,34.20
2018-11-07T20:44:42.634Z,37.27
2018-11-07T20:47:11.274Z,177.50
2018-11-07T20:49:39.765Z,64.90
2018-11-07T20:52:08.285Z,41.07
2018-11-07T20:54:36.802Z,35.63
2018-11-07T20:57:05.461Z,34.00
2018-11-07T20:59:33.932Z,38.30
2018-11-07T21:02:02.452Z,35.27
2018-11-07T21:04:31.049Z,37.93
2018-11-07T21:06:59.541Z,37.43
2018-11-07T21:09:28.705Z,36.70
2018-11-07T21:11:57.201Z,34.63
2018-11-07T21:14:25.669Z,33.07
2018-11-07T21:16:54.215Z,33.20
2018-11-07T21:19:22.646Z,35.70
2018-11-07T21:21:51.142Z,30.50
2018-11-07T21:24:19.625Z,31.50
2018-11-07T21:26:48.155Z,31.33
2018-11-07T21:29:16.620Z,30.53
2018-11-07T21:31:45.120Z,31.53
2018-11-07T21:34:14.170Z,30.17
2018-11-07T21:36:42.694Z,30.13
2018-11-07T21:39:11.890Z,30.47
2018-11-07T21:41:40.909Z,35.60
2018-11-07T21:44:09.667Z,35.67
2018-11-07T21:46:38.161Z,32.73
2018-11-07T21:49:06.642Z,33.83
2018-11-07T21:51:35.112Z,36.80
2018-11-07T21:54:03.604Z,36.53
2018-11-07T21:56:32.066Z,35.20
2018-11-07T21:59:00.556Z,33.80
2018-11-07T22:01:29.029Z,37.70
2018-11-07T22:03:57.517Z,39.53
2018-11-07T22:06:25.983Z,37.27
2018-11-07T22:08:54.472Z,38.30
2018-11-07T22:11:22.941Z,37.93
2018-11-07T22:13:51.445Z,38.73
2018-11-07T22:16:19.918Z,39.67
2018-11-07T22:18:48.420Z,46.50
2018-11-07T22:21:16.929Z,38.17
2018-11-07T22:23:45.436Z,43.30
2018-11-07T22:26:13.917Z,36.57
2018-11-07T22:28:42.413Z,36.80
2018-11-07T22:31:10.889Z,39.53
2018-11-07T22:33:39.386Z,33.97
2018-11-07T22:36:07.913Z,34.73
2018-11-07T22:38:36.405Z,34.00
2018-11-07T22:41:04.897Z,33.40
2018-11-07T22:43:33.400Z,35.90
2018-11-07T22:46:01.871Z,30.33
2018-11-07T22:48:30.368Z,30.63
2018-11-07T22:50:58.832Z,35.40
2018-11-07T22:53:27.337Z,30.03
2018-11-07T22:55:55.811Z,30.23
2018-11-07T22:58:24.334Z,32.40
2018-11-07T23:00:58.099Z,32.27
2018-11-07T23:03:26.594Z,32.17
2018-11-07T23:05:55.074Z,29.20
2018-11-07T23:08:23.541Z,29.87
2018-11-07T23:10:52.038Z,31.63
2018-11-07T23:13:20.516Z,29.80
2018-11-07T23:15:49.769Z,30.77
2018-11-07T23:18:19.696Z,34.50
2018-11-07T23:20:48.221Z,31.20
2018-11-07T23:23:17.326Z,35.23
2018-11-07T23:25:46.346Z,31.43
2018-11-07T23:28:14.825Z,29.60
2018-11-07T23:30:43.412Z,30.13
2018-11-07T23:33:11.877Z,32.37
2018-11-07T23:35:40.405Z,27.97
2018-11-07T23:38:08.864Z,25.03
2018-11-07T23:40:37.393Z,27.27
2018-11-07T23:43:05.865Z,26.40
2018-11-07T23:45:34.364Z,26.20
2018-11-07T23:48:02.825Z,25.87
2018-11-07T23:50:31.337Z,25.73
2018-11-07T23:52:59.812Z,32.77
2018-11-07T23:55:28.281Z,24.10
2018-11-07T23:57:56.777Z,24.50
